createdAt,value
2024-04-19T00:06:53.120Z,1.77
2024-04-19T00:17:00.759Z,1.90
2024-04-19T00:27:10.678Z,2.10
2024-04-19T00:37:28.132Z,2.17
2024-04-19T00:47:33.228Z,1.90
2024-04-19T00:57:41.234Z,1.73
2024-04-19T01:07:46.178Z,1.50
2024-04-19T01:17:53.803Z,1.77
2024-04-19T01:28:01.182Z,1.67
2024-04-19T01:38:09.860Z,1.30
2024-04-19T01:48:17.300Z,1.23
2024-04-19T01:58:22.117Z,1.70
2024-04-19T02:08:30.493Z,1.53
2024-04-19T02:18:35.282Z,2.27
2024-04-19T02:28:59.374Z,1.47
2024-04-19T02:39:04.136Z,1.10
2024-04-19T02:49:11.464Z,1.47
2024-04-19T02:59:21.900Z,1.20
2024-04-19T03:09:31.955Z,1.03
2024-04-19T03:19:36.650Z,1.27
2024-04-19T03:29:44.130Z,0.97
2024-04-19T03:39:49.041Z,1.10
2024-04-19T03:49:56.850Z,1.13
2024-04-19T04:00:02.685Z,1.13
2024-04-19T04:10:22.003Z,1.40
2024-04-19T04:20:26.807Z,1.13
2024-04-19T04:30:34.381Z,1.30
2024-04-19T04:40:39.195Z,0.97
2024-04-19T04:50:46.616Z,1.10
2024-04-19T05:00:52.519Z,2.07
2024-04-19T05:11:02.027Z,0.83
2024-04-19T05:31:48.149Z,0.60
2024-04-19T05:41:53.047Z,1.43
2024-04-19T05:52:00.433Z,0.80
2024-04-19T06:02:06.536Z,0.73
2024-04-19T06:12:43.702Z,1.57
2024-04-19T06:22:48.473Z,1.80
2024-04-19T06:32:56.100Z,1.43
2024-04-19T06:43:27.886Z,2.00
2024-04-19T06:53:35.309Z,1.10
2024-04-19T07:03:40.266Z,1.90
2024-04-19T07:13:48.947Z,1.53
2024-04-19T07:23:53.801Z,1.40
2024-04-19T07:34:04.800Z,1.60
2024-04-19T07:44:34.416Z,2.37
2024-04-19T07:54:43.623Z,2.50
2024-04-19T08:04:48.907Z,1.63
2024-04-19T08:14:56.513Z,1.53
2024-04-19T08:25:01.310Z,1.47
2024-04-19T08:35:08.925Z,1.47
2024-04-19T08:45:14.864Z,1.37
2024-04-19T08:55:22.742Z,1.23
2024-04-19T09:05:27.580Z,1.23
2024-04-19T09:15:37.972Z,1.80
2024-04-19T09:25:43.256Z,1.53
2024-04-19T09:35:55.502Z,1.77
2024-04-19T09:46:00.461Z,1.67
2024-04-19T09:56:19.136Z,1.37
2024-04-19T10:06:27.081Z,1.50
2024-04-19T10:16:34.619Z,1.50
2024-04-19T10:26:39.531Z,1.92
2024-04-19T10:36:47.099Z,1.37
2024-04-19T10:46:52.784Z,1.30
2024-04-19T10:57:02.760Z,1.30
2024-04-19T11:07:08.087Z,1.37
2024-04-19T11:17:15.497Z,0.83
2024-04-19T11:27:20.288Z,1.07
2024-04-19T11:37:27.649Z,0.95
2024-04-19T11:47:33.292Z,1.00
2024-04-19T11:57:41.572Z,1.30
2024-04-19T12:07:46.576Z,1.08
2024-04-19T12:17:55.811Z,1.13
2024-04-19T12:28:03.900Z,1.13
2024-04-19T12:38:11.360Z,1.08
2024-04-19T12:48:21.085Z,1.65
2024-04-19T12:58:28.833Z,1.40
2024-04-19T13:08:36.807Z,1.40
2024-04-19T13:18:46.529Z,1.10
2024-04-19T13:28:53.418Z,1.00
2024-04-19T13:39:00.805Z,0.88
2024-04-19T13:49:05.504Z,1.48
2024-04-19T13:59:15.538Z,1.60
2024-04-19T14:09:46.438Z,1.30
2024-04-19T14:19:55.297Z,0.55
2024-04-19T14:30:00.057Z,0.63
2024-04-19T14:40:33.454Z,0.70
2024-04-19T14:50:38.536Z,0.80
2024-04-19T15:00:47.216Z,1.30
2024-04-19T15:10:54.548Z,0.20
2024-04-19T15:21:03.328Z,0.43
2024-04-19T15:31:09.526Z,0.30
2024-04-19T15:41:19.446Z,0.30
2024-04-19T15:51:24.904Z,0.30
2024-04-19T16:01:40.060Z,0.20
2024-04-19T16:11:45.133Z,0.20
2024-04-19T16:21:52.607Z,0.20
2024-04-19T16:31:58.538Z,0.10
2024-04-19T16:42:06.232Z,0.30
2024-04-19T16:52:11.728Z,0.30
2024-04-19T17:02:19.119Z,0.30
2024-04-19T17:12:24.870Z,0.30
2024-04-19T17:22:32.309Z,0.17
2024-04-19T17:32:38.016Z,0.22
2024-04-19T17:42:50.862Z,0.20
2024-04-19T17:52:55.851Z,0.30
2024-04-19T18:03:05.497Z,0.93
2024-04-19T18:13:10.230Z,0.50
2024-04-19T18:23:17.542Z,0.70
2024-04-19T18:33:22.689Z,0.82
2024-04-19T18:43:32.110Z,1.90
2024-04-19T18:53:36.758Z,1.10
2024-04-19T19:03:45.416Z,0.50
2024-04-19T19:13:50.519Z,0.57
2024-04-19T19:23:57.796Z,0.43
2024-04-19T19:34:03.174Z,0.90
2024-04-19T19:44:11.343Z,0.57
2024-04-19T19:54:16.056Z,0.70
2024-04-19T20:04:39.543Z,0.87
2024-04-19T20:14:44.290Z,1.03
2024-04-19T20:24:51.731Z,1.07
2024-04-19T20:34:56.459Z,0.60
2024-04-19T20:45:03.770Z,0.73
2024-04-19T20:55:08.730Z,0.63
2024-04-19T21:05:16.050Z,0.57
2024-04-19T21:15:20.756Z,0.60
2024-04-19T21:25:28.102Z,0.50
2024-04-19T21:35:32.884Z,0.60
2024-04-19T21:45:44.112Z,0.50
2024-04-19T21:55:49.290Z,0.50
2024-04-19T22:05:56.827Z,0.50
2024-04-19T22:16:28.373Z,0.30
2024-04-19T22:26:35.783Z,0.50
2024-04-19T22:36:41.228Z,0.43
2024-04-19T22:46:52.154Z,0.50
2024-04-19T22:56:56.851Z,0.60
2024-04-19T23:07:26.237Z,0.20
2024-04-19T23:17:31.691Z,0.50
2024-04-19T23:27:39.414Z,0.60
2024-04-19T23:37:44.147Z,0.30
2024-04-19T23:47:51.579Z,0.83
2024-04-19T23:57:58.110Z,0.73
